Time;durP1;ratioP1;P1;durP2;ratioP2;P2;SDS_P1;SDS_P2;PMS_P1;PMS_P2;Temp;Humidity;BMP_temperature;BMP_pressure;BME280_temperature;BME280_humidity;BME280_pressure;Samples;Min_cycle;Max_cycle;Signal;HPM_P1;HPM_P2
2021/10/21 00:00:10;;;;;;;8.98;4.78;;;;;;;14.97;100.00;98822.63;5239779;28;19924;-69
2021/10/21 00:02:41;;;;;;;9.15;4.75;;;;;;;14.94;100.00;98819.59;5238758;28;20035;-69
2021/10/21 00:05:13;;;;;;;10.07;5.57;;;;;;;14.91;100.00;98762.00;5239699;28;20081;-70
2021/10/21 00:07:45;;;;;;;8.57;5.70;;;;;;;14.94;100.00;98741.31;5239554;28;20022;-70
2021/10/21 00:10:17;;;;;;;7.53;5.22;;;;;;;14.92;100.00;98743.31;5238301;28;20104;-68
2021/10/21 00:12:48;;;;;;;7.78;4.97;;;;;;;14.92;100.00;98758.34;5240565;28;20469;-69
2021/10/21 00:15:20;;;;;;;8.93;5.18;;;;;;;14.95;100.00;98756.09;5241140;28;20067;-69
2021/10/21 00:17:51;;;;;;;8.73;4.60;;;;;;;14.90;100.00;98740.09;5241049;28;20476;-70
2021/10/21 00:20:22;;;;;;;6.55;4.20;;;;;;;14.84;100.00;98739.09;5242412;28;20041;-70
2021/10/21 00:22:54;;;;;;;6.53;3.78;;;;;;;14.78;100.00;98731.25;5239886;28;20101;-70
2021/10/21 00:25:25;;;;;;;5.60;3.53;;;;;;;14.79;100.00;98724.94;5243415;28;20037;-70
2021/10/21 00:27:56;;;;;;;5.35;3.45;;;;;;;14.78;100.00;98725.97;5241457;28;20057;-70
2021/10/21 00:30:28;;;;;;;7.22;3.35;;;;;;;14.74;100.00;98711.59;5242401;28;20089;-69
2021/10/21 00:32:59;;;;;;;6.85;3.38;;;;;;;14.70;100.00;98716.47;5242055;28;20037;-68
2021/10/21 00:35:30;;;;;;;4.95;2.55;;;;;;;14.67;100.00;98702.91;5243099;28;20048;-69
2021/10/21 00:38:02;;;;;;;7.03;2.90;;;;;;;14.58;100.00;98699.66;5242784;28;20037;-70
2021/10/21 00:40:33;;;;;;;6.05;2.67;;;;;;;14.54;100.00;98703.72;5243759;28;20029;-70
2021/10/21 00:43:04;;;;;;;5.97;3.03;;;;;;;14.55;100.00;98727.25;5243305;28;20033;-69
2021/10/21 00:45:36;;;;;;;7.30;2.78;;;;;;;14.54;100.00;98714.28;5241655;28;20029;-70
2021/10/21 00:48:07;;;;;;;4.35;2.75;;;;;;;14.49;100.00;98704.38;5243662;28;20033;-68
2021/10/21 00:50:39;;;;;;;6.78;2.28;;;;;;;14.45;100.00;98732.13;5243476;28;20021;-69
2021/10/21 00:53:11;;;;;;;6.70;2.60;;;;;;;14.43;100.00;98744.66;5242976;28;20021;-69
2021/10/21 00:55:42;;;;;;;5.38;1.85;;;;;;;14.39;100.00;98737.38;5238983;28;21159;-69
2021/10/21 00:58:14;;;;;;;3.67;1.45;;;;;;;14.31;100.00;98730.53;5242606;28;20045;-69
2021/10/21 01:00:46;;;;;;;5.70;1.45;;;;;;;14.18;100.00;98747.16;5243266;28;20025;-69
2021/10/21 01:03:17;;;;;;;5.15;1.13;;;;;;;14.11;100.00;98757.69;5243592;28;20039;-69
2021/10/21 01:05:49;;;;;;;7.15;1.25;;;;;;;13.98;100.00;98746.34;5245505;28;20033;-70
2021/10/21 01:08:20;;;;;;;5.55;1.15;;;;;;;13.90;100.00;98757.09;5242954;28;20029;-69
2021/10/21 01:10:51;;;;;;;3.72;0.95;;;;;;;13.77;100.00;98753.44;5244381;28;20036;-69
2021/10/21 01:13:23;;;;;;;3.83;0.98;;;;;;;13.69;100.00;98737.88;5240240;28;20053;-69
2021/10/21 01:16:05;;;;;;;4.28;0.90;;;;;;;13.67;100.00;98753.03;5242461;28;20117;-69
2021/10/21 01:18:37;;;;;;;4.77;1.33;;;;;;;13.54;100.00;98753.03;5245806;28;20026;-69
2021/10/21 01:21:10;;;;;;;4.30;1.10;;;;;;;13.48;100.00;98753.81;5247377;28;20498;-69
2021/10/21 01:23:42;;;;;;;;;;;;;;;13.77;100.00;98747.38;5245289;28;20044;-69
2021/10/21 01:26:14;;;;;;;3.47;1.30;;;;;;;13.38;100.00;98759.47;5248021;28;19913;-68
2021/10/21 01:28:45;;;;;;;4.13;0.83;;;;;;;13.31;100.00;98746.31;5254956;28;20047;-69
2021/10/21 01:31:16;;;;;;;5.18;1.42;;;;;;;13.27;100.00;98731.13;5241674;28;20466;-68
2021/10/21 01:33:48;;;;;;;5.50;1.08;;;;;;;13.21;100.00;98729.25;5245497;28;20068;-69
2021/10/21 01:36:19;;;;;;;4.28;0.93;;;;;;;13.14;100.00;98716.09;5244890;28;20100;-69
2021/10/21 01:38:50;;;;;;;5.47;1.42;;;;;;;13.18;100.00;98727.03;5243200;28;20064;-68
2021/10/21 01:41:21;;;;;;;5.40;1.02;;;;;;;13.09;100.00;98711.44;5244691;28;20029;-69
2021/10/21 01:43:53;;;;;;;4.47;0.93;;;;;;;13.08;100.00;98722.16;5242663;28;20021;-68
2021/10/21 01:46:24;;;;;;;6.10;0.88;;;;;;;13.05;100.00;98720.72;5242928;28;20022;-69
2021/10/21 01:48:55;;;;;;;3.83;0.90;;;;;;;13.04;100.00;98715.69;5245415;28;20029;-69
2021/10/21 01:51:27;;;;;;;5.65;0.88;;;;;;;13.07;100.00;98721.34;5245308;28;20017;-68
2021/10/21 01:53:58;;;;;;;3.47;1.02;;;;;;;13.00;100.00;98717.88;5243586;28;20029;-68
2021/10/21 01:56:29;;;;;;;6.18;1.45;;;;;;;13.08;100.00;98709.00;5242938;28;20037;-69
2021/10/21 01:59:01;;;;;;;4.28;1.38;;;;;;;13.10;100.00;98692.00;5244655;28;20128;-69
2021/10/21 02:01:32;;;;;;;4.53;1.00;;;;;;;13.12;100.00;98711.03;5243327;28;20029;-68
2021/10/21 02:04:04;;;;;;;2.95;0.90;;;;;;;13.14;100.00;98701.16;5241203;28;20030;-69
2021/10/21 02:06:35;;;;;;;5.30;1.42;;;;;;;13.15;100.00;98684.34;5243017;28;20026;-69
2021/10/21 02:09:07;;;;;;;7.25;1.15;;;;;;;13.08;100.00;98680.91;5243933;28;20029;-69
2021/10/21 02:11:38;;;;;;;5.10;1.40;;;;;;;13.12;100.00;98674.25;5243345;28;20056;-69
2021/10/21 02:14:09;;;;;;;6.45;1.00;;;;;;;13.06;100.00;98664.50;5239281;28;20045;-67
2021/10/21 02:16:41;;;;;;;3.35;0.80;;;;;;;13.10;100.00;98684.13;5241980;28;20470;-69
2021/10/21 02:19:12;;;;;;;3.00;0.85;;;;;;;13.07;100.00;98660.88;5242216;28;20112;-68
2021/10/21 02:21:43;;;;;;;7.53;1.50;;;;;;;13.05;100.00;98662.09;5243198;28;20115;-69
2021/10/21 02:24:15;;;;;;;7.38;1.00;;;;;;;13.04;100.00;98661.28;5241859;28;20025;-69
2021/10/21 02:26:46;;;;;;;4.60;1.15;;;;;;;12.89;100.00;98665.91;5243311;28;20422;-68
2021/10/21 02:29:17;;;;;;;4.65;1.20;;;;;;;12.83;100.00;98672.75;5242149;28;20380;-70
2021/10/21 02:31:48;;;;;;;4.95;1.33;;;;;;;12.71;100.00;98687.47;5241501;28;20028;-69
2021/10/21 02:34:20;;;;;;;5.65;1.38;;;;;;;12.44;100.00;98641.91;5240427;28;20030;-69
2021/10/21 02:36:51;;;;;;;3.17;1.13;;;;;;;12.56;100.00;98653.47;5241877;28;20032;-68
2021/10/21 02:39:23;;;;;;;6.20;1.88;;;;;;;12.53;100.00;98645.16;5241056;28;20033;-68
2021/10/21 02:41:54;;;;;;;5.78;1.48;;;;;;;12.50;100.00;98642.91;5239520;28;20483;-69
2021/10/21 02:44:26;;;;;;;6.35;1.13;;;;;;;12.50;100.00;98645.53;5242210;28;20025;-69
2021/10/21 02:46:57;;;;;;;5.65;1.20;;;;;;;12.47;100.00;98643.34;5240708;28;20132;-69
2021/10/21 02:49:28;;;;;;;6.22;1.48;;;;;;;12.44;100.00;98633.22;5242459;28;20041;-69
2021/10/21 02:52:00;;;;;;;6.32;1.80;;;;;;;12.39;100.00;98639.88;5241438;28;20053;-67
2021/10/21 02:54:31;;;;;;;6.50;0.93;;;;;;;12.38;100.00;98638.22;5240436;28;20075;-69
2021/10/21 02:57:03;;;;;;;5.75;1.10;;;;;;;12.30;100.00;98635.78;5239694;28;20033;-69
2021/10/21 02:59:34;;;;;;;11.43;1.38;;;;;;;12.32;100.00;98630.34;5240209;28;20030;-69
2021/10/21 03:02:06;;;;;;;7.10;1.52;;;;;;;12.28;100.00;98623.88;5241343;28;20068;-69
2021/10/21 03:04:37;;;;;;;7.10;1.42;;;;;;;12.23;100.00;98628.88;5239323;28;20026;-67
2021/10/21 03:07:08;;;;;;;7.55;1.30;;;;;;;12.17;100.00;98630.47;5241065;28;20049;-68
2021/10/21 03:09:40;;;;;;;4.93;1.30;;;;;;;12.10;100.00;98625.19;5241930;28;20104;-69
2021/10/21 03:12:11;;;;;;;5.47;1.17;;;;;;;12.00;100.00;98601.09;5205654;28;1048324;-68
2021/10/21 03:14:42;;;;;;;8.30;1.40;;;;;;;12.05;100.00;98627.59;5240378;28;20045;-68
2021/10/21 03:17:14;;;;;;;4.50;1.30;;;;;;;12.01;100.00;98613.25;5239713;28;20434;-69
2021/10/21 03:19:46;;;;;;;4.93;1.05;;;;;;;11.97;100.00;98601.50;5240859;28;20039;-69
2021/10/21 03:22:18;;;;;;;10.07;1.90;;;;;;;12.01;100.00;98615.03;5241518;28;20026;-69
2021/10/21 03:24:51;;;;;;;6.93;1.55;;;;;;;11.92;100.00;98609.13;5242648;28;20037;-69
2021/10/21 03:27:22;;;;;;;;;;;;;;;12.27;100.00;98612.53;5242503;28;20053;-68
2021/10/21 03:29:53;;;;;;;6.18;1.10;;;;;;;11.95;100.00;98603.50;5241231;28;20440;-68
2021/10/21 03:32:25;;;;;;;6.38;1.20;;;;;;;11.87;100.00;98601.03;5239975;28;20029;-69
2021/10/21 03:34:57;;;;;;;4.47;1.00;;;;;;;11.88;100.00;98592.16;5240741;28;20044;-67
2021/10/21 03:37:28;;;;;;;7.10;1.58;;;;;;;11.87;100.00;98593.97;5240854;28;20060;-69
2021/10/21 03:39:59;;;;;;;4.72;1.20;;;;;;;11.88;100.00;98573.78;5238922;28;20101;-69
2021/10/21 03:42:31;;;;;;;8.02;1.73;;;;;;;11.82;100.00;98577.97;5242050;28;20107;-69
2021/10/21 03:45:07;;;;;;;5.68;1.33;;;;;;;11.86;100.00;98570.56;5241132;28;20041;-69
2021/10/21 03:47:38;;;;;;;5.07;1.10;;;;;;;11.86;100.00;98568.75;5245861;28;20044;-69
2021/10/21 03:50:10;;;;;;;6.30;1.35;;;;;;;11.87;100.00;98561.69;5239052;28;20029;-68
2021/10/21 03:52:41;;;;;;;8.40;1.48;;;;;;;11.87;100.00;98559.06;5240809;28;20491;-69
2021/10/21 03:55:13;;;;;;;9.07;1.58;;;;;;;11.84;100.00;98557.63;5241493;28;20063;-69
2021/10/21 03:57:44;;;;;;;6.03;1.17;;;;;;;11.87;100.00;98564.31;5239499;28;20060;-69
2021/10/21 04:00:15;;;;;;;10.73;2.47;;;;;;;11.85;100.00;98561.88;5238511;28;20025;-67
2021/10/21 04:02:46;;;;;;;7.28;1.30;;;;;;;11.88;100.00;98552.81;5239245;28;20041;-69
2021/10/21 04:05:18;;;;;;;6.97;1.08;;;;;;;11.91;100.00;98555.03;5236587;28;20029;-69
2021/10/21 04:07:51;;;;;;;5.22;1.15;;;;;;;11.91;100.00;98566.34;5239298;28;20040;-69
2021/10/21 04:10:22;;;;;;;3.95;1.00;;;;;;;11.93;100.00;98539.91;5240616;28;20087;-69
2021/10/21 04:12:54;;;;;;;6.47;1.10;;;;;;;11.88;100.00;98551.00;5239231;28;20057;-69
2021/10/21 04:15:25;;;;;;;6.38;1.20;;;;;;;11.89;100.00;98551.78;5239922;28;20033;-69
2021/10/21 04:17:56;;;;;;;5.55;1.13;;;;;;;11.83;100.00;98535.03;5239969;28;20026;-69
2021/10/21 04:20:28;;;;;;;5.82;1.30;;;;;;;11.81;100.00;98533.56;5241254;28;20025;-68
2021/10/21 04:22:59;;;;;;;3.40;0.93;;;;;;;11.83;100.00;98515.81;5236787;28;20037;-69
2021/10/21 04:25:31;;;;;;;4.95;1.40;;;;;;;11.81;100.00;98502.09;5239793;28;21287;-68
2021/10/21 04:28:03;;;;;;;5.50;1.20;;;;;;;11.83;100.00;98518.44;5239383;28;20119;-68
2021/10/21 04:30:34;;;;;;;5.53;0.90;;;;;;;11.86;100.00;98503.16;5236077;28;20018;-68
2021/10/21 04:33:05;;;;;;;3.20;0.98;;;;;;;11.86;100.00;98512.84;5235591;28;20036;-68
2021/10/21 04:35:37;;;;;;;4.03;0.60;;;;;;;11.89;100.00;98505.41;5236603;28;20029;-69
2021/10/21 04:38:08;;;;;;;2.80;1.02;;;;;;;11.92;100.00;98515.47;5236364;28;20029;-69
2021/10/21 04:40:39;;;;;;;3.85;0.93;;;;;;;11.93;100.00;98526.78;5234607;28;20136;-68
2021/10/21 04:43:11;;;;;;;3.95;1.13;;;;;;;11.91;100.00;98526.19;5237253;28;20188;-68
2021/10/21 04:45:42;;;;;;;2.45;0.88;;;;;;;11.98;100.00;98532.28;5236737;28;20638;-69
2021/10/21 04:48:14;;;;;;;4.65;1.00;;;;;;;11.92;100.00;98527.78;5237263;28;20379;-69
2021/10/21 04:50:45;;;;;;;7.32;1.30;;;;;;;11.91;100.00;98542.72;5235964;28;20049;-69
2021/10/21 04:53:17;;;;;;;6.90;1.30;;;;;;;11.91;100.00;98552.41;5237848;28;20056;-68
2021/10/21 04:55:48;;;;;;;5.75;1.42;;;;;;;11.88;100.00;98560.69;5236525;28;20029;-69
2021/10/21 04:58:19;;;;;;;6.90;1.48;;;;;;;11.83;100.00;98577.00;5234186;28;20037;-68
2021/10/21 05:00:51;;;;;;;7.60;1.55;;;;;;;11.84;100.00;98581.25;5235388;28;20121;-69
2021/10/21 05:03:22;;;;;;;8.10;1.65;;;;;;;11.84;100.00;98602.22;5237851;28;20049;-69
2021/10/21 05:05:53;;;;;;;7.47;2.20;;;;;;;11.82;100.00;98629.63;5237647;28;20029;-69
2021/10/21 05:08:24;;;;;;;7.95;1.60;;;;;;;11.81;100.00;98649.81;5235847;28;20072;-69
2021/10/21 05:10:56;;;;;;;5.70;1.42;;;;;;;11.79;100.00;98678.06;5235114;28;20040;-68
2021/10/21 05:13:27;;;;;;;6.60;1.25;;;;;;;11.83;100.00;98726.53;5227677;28;20080;-68
2021/10/21 05:15:58;;;;;;;5.00;1.27;;;;;;;11.83;100.00;98754.56;5237303;28;20029;-69
2021/10/21 05:18:30;;;;;;;4.50;1.00;;;;;;;11.79;100.00;98811.03;5237007;28;20083;-69
2021/10/21 05:21:01;;;;;;;4.22;0.80;;;;;;;11.71;100.00;98840.84;5234032;28;20033;-69
2021/10/21 05:23:32;;;;;;;2.25;0.55;;;;;;;11.61;100.00;98864.72;5233924;28;20091;-70
2021/10/21 05:26:04;;;;;;;3.05;0.57;;;;;;;11.51;100.00;98900.91;5233266;28;20083;-69
2021/10/21 05:28:35;;;;;;;4.25;1.02;;;;;;;11.44;100.00;98940.19;5232213;28;20029;-69
2021/10/21 05:31:07;;;;;;;3.30;0.73;;;;;;;11.35;100.00;98972.72;5233778;28;20026;-67
2021/10/21 05:33:38;;;;;;;5.05;1.05;;;;;;;11.25;100.00;99011.53;5236314;28;20063;-68
2021/10/21 05:36:09;;;;;;;5.13;0.63;;;;;;;11.26;100.00;99030.69;5236225;28;20021;-69
2021/10/21 05:38:41;;;;;;;4.93;0.73;;;;;;;11.16;100.00;99055.31;5235048;28;20036;-68
2021/10/21 05:41:12;;;;;;;4.32;0.65;;;;;;;11.14;100.00;99104.50;5234444;28;20029;-69
2021/10/21 05:43:43;;;;;;;6.65;1.02;;;;;;;11.17;100.00;99140.00;5236359;28;20032;-68
2021/10/21 05:46:14;;;;;;;4.63;0.90;;;;;;;11.05;100.00;99167.63;5232342;28;20029;-67
2021/10/21 05:48:46;;;;;;;7.88;1.50;;;;;;;10.97;100.00;99189.44;5233356;28;20030;-69
2021/10/21 05:51:17;;;;;;;7.97;1.17;;;;;;;10.93;100.00;99209.13;5235952;28;20057;-69
2021/10/21 05:53:49;;;;;;;5.25;1.30;;;;;;;10.92;100.00;99246.81;5233205;28;20108;-69
2021/10/21 05:56:20;;;;;;;11.77;1.77;;;;;;;10.88;100.00;99280.41;5233625;28;20487;-69
2021/10/21 05:58:53;;;;;;;9.18;1.45;;;;;;;10.91;100.00;99279.22;5236380;28;20399;-68
2021/10/21 06:01:25;;;;;;;9.40;1.48;;;;;;;10.96;100.00;99310.97;5236827;28;20030;-69
2021/10/21 06:03:56;;;;;;;12.77;2.20;;;;;;;10.87;100.00;99361.75;5234485;28;20394;-69
2021/10/21 06:06:32;;;;;;;11.88;2.50;;;;;;;10.83;100.00;99353.41;5232309;28;20443;-70
2021/10/21 06:09:04;;;;;;;13.25;2.20;;;;;;;10.81;100.00;99371.13;5238142;28;20029;-70
2021/10/21 06:11:37;;;;;;;10.30;2.53;;;;;;;10.77;100.00;99389.97;5236921;28;20128;-70
2021/10/21 06:14:08;;;;;;;;;;;;;;;11.00;100.00;99418.91;5239880;28;20112;-70
2021/10/21 06:16:42;;;;;;;14.33;2.63;;;;;;;10.68;100.00;99415.34;5234122;28;19995;-70
2021/10/21 06:19:15;;;;;;;12.32;2.03;;;;;;;10.60;100.00;99446.78;5234574;28;20319;-69
2021/10/21 06:21:47;;;;;;;9.68;1.70;;;;;;;10.65;100.00;99441.88;5237981;28;20018;-70
2021/10/21 06:24:18;;;;;;;16.42;2.42;;;;;;;10.57;100.00;99465.44;5241579;28;20025;-70
2021/10/21 06:26:50;;;;;;;15.13;2.50;;;;;;;10.58;100.00;99462.66;5236882;28;20030;-69
2021/10/21 06:29:21;;;;;;;9.98;2.40;;;;;;;10.57;100.00;99471.53;5232912;28;20039;-70
2021/10/21 06:31:53;;;;;;;20.05;2.28;;;;;;;10.50;100.00;99467.09;5216753;28;20033;-70
2021/10/21 06:34:24;;;;;;;10.68;1.67;;;;;;;10.58;100.00;99490.66;5227391;28;20025;-70
2021/10/21 06:36:55;;;;;;;8.50;2.13;;;;;;;10.53;100.00;99504.25;5232953;28;20033;-69
2021/10/21 06:39:27;;;;;;;11.70;2.17;;;;;;;10.52;100.00;99518.31;5233075;28;20296;-70
2021/10/21 06:41:58;;;;;;;10.70;2.13;;;;;;;10.55;100.00;99569.53;5233177;28;20052;-70
2021/10/21 06:44:30;;;;;;;10.27;2.13;;;;;;;10.47;100.00;99563.31;5225721;28;20326;-70
2021/10/21 06:47:01;;;;;;;7.88;1.70;;;;;;;10.36;100.00;99591.59;5227251;28;20529;-70
2021/10/21 06:49:32;;;;;;;6.80;1.10;;;;;;;10.31;100.00;99612.19;5231521;28;20033;-70
2021/10/21 06:52:04;;;;;;;7.18;1.17;;;;;;;10.27;100.00;99619.56;5225866;28;20116;-70
2021/10/21 06:54:35;;;;;;;6.30;1.80;;;;;;;10.27;100.00;99627.41;5229994;28;20033;-70
2021/10/21 06:57:07;;;;;;;5.18;1.40;;;;;;;10.23;100.00;99641.75;5230511;28;20022;-70
2021/10/21 06:59:38;;;;;;;11.25;1.83;;;;;;;10.29;100.00;99661.25;5227905;28;20067;-70
2021/10/21 07:02:09;;;;;;;6.53;1.65;;;;;;;10.29;100.00;99669.13;5233634;28;20030;-70
2021/10/21 07:04:41;;;;;;;9.52;1.88;;;;;;;10.28;100.00;99677.97;5226733;28;20037;-70
2021/10/21 07:07:12;;;;;;;8.25;1.60;;;;;;;10.34;100.00;99685.16;5224858;28;20049;-70
2021/10/21 07:09:43;;;;;;;12.13;2.30;;;;;;;10.33;100.00;99713.16;5217974;28;20048;-70
2021/10/21 07:12:15;;;;;;;14.30;2.63;;;;;;;10.33;100.00;99714.94;5228452;28;20589;-70
2021/10/21 07:14:46;;;;;;;13.68;2.45;;;;;;;10.35;100.00;99726.09;5230518;28;20867;-70
2021/10/21 07:17:18;;;;;;;16.50;3.00;;;;;;;10.34;100.00;99743.59;5231979;28;20033;-70
2021/10/21 07:19:49;;;;;;;11.23;2.25;;;;;;;10.39;100.00;99761.47;5228997;28;20394;-70
2021/10/21 07:22:21;;;;;;;14.23;2.65;;;;;;;10.37;100.00;99751.13;5232706;28;20053;-70
2021/10/21 07:24:52;;;;;;;15.20;3.25;;;;;;;10.33;100.00;99772.53;5232452;28;20032;-71
2021/10/21 07:27:24;;;;;;;18.77;3.95;;;;;;;10.35;100.00;99784.50;5229882;28;20021;-70
2021/10/21 07:29:55;;;;;;;13.68;2.15;;;;;;;10.41;100.00;99796.97;5225288;28;20033;-70
2021/10/21 07:32:27;;;;;;;15.35;2.63;;;;;;;10.37;100.00;99793.00;5226118;28;20025;-70
2021/10/21 07:34:58;;;;;;;12.85;2.38;;;;;;;10.36;100.00;99814.13;5229110;28;20376;-70
2021/10/21 07:37:30;;;;;;;10.38;2.20;;;;;;;10.38;100.00;99820.88;5229419;28;20029;-70
2021/10/21 07:40:03;;;;;;;12.23;2.17;;;;;;;10.44;100.00;99829.88;5224926;28;20091;-70
2021/10/21 07:42:35;;;;;;;;;;;;;;;10.76;100.00;99849.38;5227577;28;20773;-70
2021/10/21 07:45:07;;;;;;;11.32;2.22;;;;;;;10.54;100.00;99856.81;5222881;28;19920;-70
2021/10/21 07:47:39;;;;;;;15.90;2.72;;;;;;;10.54;100.00;99869.91;5231835;28;20029;-70
2021/10/21 07:50:11;;;;;;;10.73;2.55;;;;;;;10.54;100.00;99869.91;5231868;28;20033;-72
2021/10/21 07:52:45;;;;;;;12.45;2.70;;;;;;;10.59;100.00;99885.16;5224020;28;20025;-71
2021/10/21 07:55:16;;;;;;;10.93;2.20;;;;;;;10.62;100.00;99887.47;5230342;28;20091;-71
2021/10/21 07:57:47;;;;;;;8.27;1.90;;;;;;;10.67;100.00;99896.47;5230680;28;20033;-71
2021/10/21 08:00:19;;;;;;;10.20;2.08;;;;;;;10.72;100.00;99898.66;5227012;28;20029;-70
2021/10/21 08:02:50;;;;;;;13.80;2.60;;;;;;;10.75;100.00;99911.44;5229828;28;20419;-71
2021/10/21 08:05:21;;;;;;;13.02;2.55;;;;;;;10.88;100.00;99914.47;5232446;28;20039;-71
2021/10/21 08:07:54;;;;;;;13.70;2.70;;;;;;;10.93;100.00;99927.94;5232840;28;20032;-70
2021/10/21 08:10:25;;;;;;;9.60;2.22;;;;;;;10.98;100.00;99922.22;5232856;28;20025;-71
2021/10/21 08:12:56;;;;;;;9.48;1.88;;;;;;;11.06;100.00;99942.41;5232177;28;20088;-70
2021/10/21 08:15:28;;;;;;;9.00;2.17;;;;;;;11.07;100.00;99936.22;5230458;28;20161;-70
2021/10/21 08:17:59;;;;;;;14.90;2.38;;;;;;;11.08;100.00;99945.72;5227093;28;20447;-70
2021/10/21 08:20:31;;;;;;;12.50;2.15;;;;;;;11.09;100.00;99947.34;5226993;28;20042;-70
2021/10/21 08:23:02;;;;;;;12.57;2.50;;;;;;;11.08;100.00;99935.22;5232934;28;20026;-71
2021/10/21 08:25:33;;;;;;;10.13;1.83;;;;;;;11.17;100.00;99950.00;5231521;28;20025;-70
2021/10/21 08:28:05;;;;;;;12.65;2.00;;;;;;;11.24;100.00;99963.31;5232501;28;20053;-70
2021/10/21 08:30:40;;;;;;;10.65;2.08;;;;;;;11.27;100.00;99945.47;5231070;28;20022;-70
2021/10/21 08:33:14;;;;;;;11.32;1.98;;;;;;;11.32;100.00;99965.97;5232026;28;20480;-70
2021/10/21 08:35:46;;;;;;;15.63;2.83;;;;;;;11.25;100.00;99965.81;5231146;28;20029;-70
2021/10/21 08:38:18;;;;;;;8.80;2.15;;;;;;;11.31;100.00;99972.22;5232231;28;20086;-70
2021/10/21 08:40:50;;;;;;;11.03;1.87;;;;;;;11.34;100.00;99977.16;5232208;28;20025;-70
2021/10/21 08:43:22;;;;;;;11.90;1.98;;;;;;;11.31;100.00;99995.81;5232313;28;20021;-70
2021/10/21 08:45:53;;;;;;;12.43;3.00;;;;;;;11.39;100.00;99983.56;5232133;28;20728;-70
2021/10/21 08:48:26;;;;;;;11.75;2.40;;;;;;;11.43;100.00;99987.50;5230371;28;20040;-71
2021/10/21 08:50:57;;;;;;;11.63;2.72;;;;;;;11.56;100.00;99986.28;5230803;28;20025;-70
2021/10/21 08:53:29;;;;;;;12.25;2.95;;;;;;;11.61;100.00;99990.06;5229268;28;20489;-70
2021/10/21 08:56:01;;;;;;;13.52;2.15;;;;;;;11.68;100.00;100003.38;5231787;28;20033;-69
2021/10/21 08:58:34;;;;;;;14.45;2.80;;;;;;;11.67;100.00;100027.97;5231874;28;20034;-71
2021/10/21 09:01:12;;;;;;;11.10;2.47;;;;;;;11.68;100.00;100037.47;5228577;28;20045;-69
2021/10/21 09:09:25;;;;;;;10.15;2.70;;;;;;;11.32;100.00;100076.94;5228956;28;20486;-70
2021/10/21 09:12:11;;;;;;;8.98;2.28;;;;;;;11.19;100.00;100084.41;5229104;28;20073;-71
2021/10/21 09:14:50;;;;;;;10.82;2.20;;;;;;;11.04;100.00;100089.34;5231005;28;20040;-69
2021/10/21 09:17:26;;;;;;;6.95;1.98;;;;;;;10.91;100.00;100100.25;5228166;28;20067;-69
2021/10/21 09:19:58;;;;;;;8.43;2.08;;;;;;;10.83;100.00;100102.75;5228646;28;20387;-69
2021/10/21 09:22:29;;;;;;;12.43;2.90;;;;;;;10.77;100.00;100098.13;5231588;28;20029;-71
2021/10/21 09:25:06;;;;;;;8.55;1.90;;;;;;;10.78;100.00;100105.00;5232250;28;20029;-69
2021/10/21 09:27:45;;;;;;;9.15;2.40;;;;;;;10.71;100.00;100103.97;5233290;28;20036;-70
2021/10/21 09:30:30;;;;;;;11.60;2.28;;;;;;;10.78;100.00;100120.75;5230325;28;20037;-69
2021/10/21 09:33:03;;;;;;;11.82;3.05;;;;;;;10.73;100.00;100130.03;5231740;28;20029;-69
2021/10/21 09:35:37;;;;;;;7.93;2.25;;;;;;;10.63;100.00;100116.97;5231028;28;20491;-70
2021/10/21 09:38:17;;;;;;;10.07;2.63;;;;;;;10.72;100.00;100129.22;5234360;28;20056;-70
2021/10/21 09:40:48;;;;;;;9.10;2.10;;;;;;;10.61;100.00;100130.25;5234530;28;20034;-69
2021/10/21 09:43:31;;;;;;;8.30;2.05;;;;;;;10.68;100.00;100135.69;5233754;28;20057;-69
2021/10/21 09:46:02;;;;;;;10.93;2.33;;;;;;;10.54;100.00;100128.34;5236921;28;20037;-70
2021/10/21 09:48:33;;;;;;;10.48;1.90;;;;;;;10.55;100.00;100141.28;5236708;28;20026;-70
2021/10/21 09:51:04;;;;;;;12.40;2.72;;;;;;;10.55;100.00;100145.72;5235758;28;20021;-70
2021/10/21 09:53:36;;;;;;;8.50;2.08;;;;;;;10.54;100.00;100138.84;5235328;28;20033;-69
2021/10/21 09:56:08;;;;;;;10.07;2.40;;;;;;;10.54;100.00;100152.75;5237652;28;20037;-70
2021/10/21 09:58:41;;;;;;;11.15;2.55;;;;;;;10.57;100.00;100149.00;5235224;28;20487;-69
2021/10/21 10:01:15;;;;;;;9.55;2.42;;;;;;;10.58;100.00;100174.25;5234785;28;20038;-69
2021/10/21 10:03:50;;;;;;;12.77;2.58;;;;;;;10.48;100.00;100169.84;5236587;28;20040;-71
2021/10/21 10:06:21;;;;;;;7.53;2.40;;;;;;;10.46;100.00;100166.56;5236888;28;20471;-70
2021/10/21 10:08:52;;;;;;;8.57;2.40;;;;;;;10.53;100.00;100169.44;5233787;28;20041;-69
2021/10/21 10:11:23;;;;;;;8.25;2.47;;;;;;;10.57;100.00;100185.66;5233227;28;20552;-69
2021/10/21 10:13:55;;;;;;;6.93;2.00;;;;;;;10.60;100.00;100177.50;5235088;28;20029;-70
2021/10/21 10:16:26;;;;;;;5.90;2.30;;;;;;;10.63;100.00;100185.09;5234853;28;20036;-69
2021/10/21 10:19:04;;;;;;;9.15;2.25;;;;;;;10.75;100.00;100183.91;5232063;28;20038;-69
2021/10/21 10:21:37;;;;;;;7.70;1.88;;;;;;;10.68;100.00;100195.94;5234421;28;20071;-71
2021/10/21 10:24:13;;;;;;;11.07;2.40;;;;;;;10.70;100.00;100192.22;5220103;28;20040;-70
2021/10/21 10:26:46;;;;;;;8.70;2.10;;;;;;;10.65;100.00;100188.41;5228496;28;20025;-70
2021/10/21 10:29:19;;;;;;;4.60;1.77;;;;;;;10.56;100.00;100197.94;5234125;28;20117;-70
2021/10/21 10:31:59;;;;;;;6.13;1.70;;;;;;;10.63;100.00;100214.72;5234420;28;20466;-69
2021/10/21 10:34:33;;;;;;;5.32;1.73;;;;;;;10.67;100.00;100223.94;5223238;28;20380;-71
2021/10/21 10:37:17;;;;;;;8.70;2.05;;;;;;;10.64;100.00;100229.47;5232160;28;20120;-70
2021/10/21 10:39:52;;;;;;;5.95;1.58;;;;;;;10.58;100.00;100234.47;5233229;28;20830;-69
2021/10/21 10:42:30;;;;;;;3.70;0.95;;;;;;;10.52;100.00;100230.63;5233389;28;20102;-69
2021/10/21 10:45:07;;;;;;;4.30;1.52;;;;;;;10.46;100.00;100228.59;5234693;28;20473;-69
2021/10/21 10:47:48;;;;;;;3.95;1.20;;;;;;;10.48;100.00;100235.34;5235242;28;20083;-69
2021/10/21 10:50:22;;;;;;;6.68;1.20;;;;;;;10.41;100.00;100239.50;5235097;28;20057;-70
2021/10/21 10:53:01;;;;;;;5.03;1.23;;;;;;;10.42;100.00;100243.78;5233455;28;20030;-69
2021/10/21 10:55:49;;;;;;;3.92;1.02;;;;;;;10.53;100.00;100245.41;5231920;28;20025;-70
2021/10/21 10:58:25;;;;;;;4.60;1.17;;;;;;;10.53;100.00;100257.66;5233962;28;20041;-69
2021/10/21 11:00:58;;;;;;;3.55;1.33;;;;;;;10.42;100.00;100251.63;5227838;28;20049;-70
2021/10/21 11:03:33;;;;;;;3.97;1.45;;;;;;;10.44;100.00;100251.47;5232625;28;20057;-71
2021/10/21 11:06:07;;;;;;;4.15;1.48;;;;;;;10.44;100.00;100261.97;5235192;28;20040;-71
2021/10/21 11:09:01;;;;;;;4.90;1.90;;;;;;;10.66;100.00;100269.44;5233846;28;20466;-70
2021/10/21 11:11:44;;;;;;;4.57;1.70;;;;;;;10.70;100.00;100264.75;5227448;28;20054;-70
2021/10/21 11:14:31;;;;;;;4.72;1.60;;;;;;;10.80;100.00;100278.63;5227251;28;20037;-68
2021/10/21 11:17:03;;;;;;;3.75;1.67;;;;;;;10.84;100.00;100271.31;5233075;28;20575;-68
2021/10/21 11:19:44;;;;;;;3.28;1.40;;;;;;;10.94;100.00;100272.06;5228446;28;20036;-68
2021/10/21 11:22:18;;;;;;;7.75;1.70;;;;;;;10.96;100.00;100280.63;5230368;28;20503;-68
2021/10/21 11:24:50;;;;;;;6.43;1.35;;;;;;;10.99;100.00;100282.13;5227894;28;20092;-68
2021/10/21 11:27:42;;;;;;;7.75;1.40;;;;;;;10.99;100.00;100264.59;5232577;28;20037;-68
2021/10/21 11:30:25;;;;;;;6.00;1.58;;;;;;;10.93;100.00;100278.28;5232082;28;20398;-68
2021/10/21 11:33:01;;;;;;;4.78;1.52;;;;;;;10.97;100.00;100269.16;5233152;28;20025;-68
2021/10/21 11:35:35;;;;;;;5.60;1.30;;;;;;;10.93;100.00;100279.09;5230899;28;20031;-68
2021/10/21 11:38:18;;;;;;;9.77;1.88;;;;;;;11.04;100.00;100285.13;5228613;28;20038;-69
2021/10/21 11:40:53;;;;;;;6.63;1.25;;;;;;;11.15;100.00;100295.41;5223430;28;20091;-68
2021/10/21 11:43:27;;;;;;;6.93;1.67;;;;;;;11.15;100.00;100290.16;5229766;28;20109;-68
2021/10/21 11:46:01;;;;;;;6.13;1.58;;;;;;;11.03;100.00;100302.66;5232758;28;20025;-68
2021/10/21 11:48:39;;;;;;;9.50;1.63;;;;;;;11.14;100.00;100310.31;5232063;28;20029;-68
2021/10/21 11:51:13;;;;;;;6.38;1.48;;;;;;;11.22;100.00;100308.78;5233935;28;20116;-68